sensor_id;sensor_type;location;lat;lon;timestamp;temperature;humidity
2363;DHT22;1192;51.664;7.626;2022-09-09T00:00:14;20.00;99.90
2363;DHT22;1192;51.664;7.626;2022-09-09T00:02:47;20.00;99.90
2363;DHT22;1192;51.664;7.626;2022-09-09T00:05:22;19.90;99.90
2363;DHT22;1192;51.664;7.626;2022-09-09T00:07:53;20.00;99.90
2363;DHT22;1192;51.664;7.626;2022-09-09T00:10:25;19.90;99.90
2363;DHT22;1192;51.664;7.626;2022-09-09T00:12:59;19.90;99.90
2363;DHT22;1192;51.664;7.626;2022-09-09T00:15:32;19.90;99.90
2363;DHT22;1192;51.664;7.626;2022-09-09T00:18:08;19.90;99.90
2363;DHT22;1192;51.664;7.626;2022-09-09T00:20:43;19.90;99.90
2363;DHT22;1192;51.664;7.626;2022-09-09T00:23:19;19.90;99.90
2363;DHT22;1192;51.664;7.626;2022-09-09T00:25:57;19.90;99.90
2363;DHT22;1192;51.664;7.626;2022-09-09T00:28:26;19.90;99.90
2363;DHT22;1192;51.664;7.626;2022-09-09T00:30:59;19.90;99.90
2363;DHT22;1192;51.664;7.626;2022-09-09T00:33:30;19.80;99.90
2363;DHT22;1192;51.664;7.626;2022-09-09T00:35:58;19.80;99.90
2363;DHT22;1192;51.664;7.626;2022-09-09T00:38:32;19.80;99.90
2363;DHT22;1192;51.664;7.626;2022-09-09T00:41:05;19.80;99.90
2363;DHT22;1192;51.664;7.626;2022-09-09T00:43:36;19.80;99.90
2363;DHT22;1192;51.664;7.626;2022-09-09T00:46:33;19.80;99.90
2363;DHT22;1192;51.664;7.626;2022-09-09T00:49:15;19.80;99.90
2363;DHT22;1192;51.664;7.626;2022-09-09T00:51:48;19.80;99.90
2363;DHT22;1192;51.664;7.626;2022-09-09T00:54:38;19.80;99.90
2363;DHT22;1192;51.664;7.626;2022-09-09T00:57:25;19.80;99.90
2363;DHT22;1192;51.664;7.626;2022-09-09T00:59:59;19.70;99.90
2363;DHT22;1192;51.664;7.626;2022-09-09T01:02:41;19.70;99.90
2363;DHT22;1192;51.664;7.626;2022-09-09T01:05:16;19.70;99.90
2363;DHT22;1192;51.664;7.626;2022-09-09T01:07:48;19.70;99.90
2363;DHT22;1192;51.664;7.626;2022-09-09T01:10:24;19.70;99.90
2363;DHT22;1192;51.664;7.626;2022-09-09T01:12:54;19.70;99.90
2363;DHT22;1192;51.664;7.626;2022-09-09T01:15:25;19.70;99.90
2363;DHT22;1192;51.664;7.626;2022-09-09T01:17:59;19.60;99.90
2363;DHT22;1192;51.664;7.626;2022-09-09T01:20:31;19.60;99.90
2363;DHT22;1192;51.664;7.626;2022-09-09T01:23:14;19.60;99.90
2363;DHT22;1192;51.664;7.626;2022-09-09T01:26:12;19.60;99.90
2363;DHT22;1192;51.664;7.626;2022-09-09T01:28:43;19.60;99.90
2363;DHT22;1192;51.664;7.626;2022-09-09T01:31:15;19.60;99.90
2363;DHT22;1192;51.664;7.626;2022-09-09T01:33:44;19.60;99.90
2363;DHT22;1192;51.664;7.626;2022-09-09T01:36:13;19.60;99.90
2363;DHT22;1192;51.664;7.626;2022-09-09T01:38:42;19.60;99.90
2363;DHT22;1192;51.664;7.626;2022-09-09T01:41:10;19.60;99.90
2363;DHT22;1192;51.664;7.626;2022-09-09T01:43:37;19.60;99.90
2363;DHT22;1192;51.664;7.626;2022-09-09T01:46:04;19.60;99.90
2363;DHT22;1192;51.664;7.626;2022-09-09T01:48:32;19.50;99.90
2363;DHT22;1192;51.664;7.626;2022-09-09T01:50:59;19.50;99.90
2363;DHT22;1192;51.664;7.626;2022-09-09T01:53:26;19.50;99.90
2363;DHT22;1192;51.664;7.626;2022-09-09T01:56:02;19.50;99.90
2363;DHT22;1192;51.664;7.626;2022-09-09T01:58:40;19.50;99.90
2363;DHT22;1192;51.664;7.626;2022-09-09T02:01:17;19.50;99.90
2363;DHT22;1192;51.664;7.626;2022-09-09T02:03:52;19.50;99.90
2363;DHT22;1192;51.664;7.626;2022-09-09T02:06:27;19.50;99.90
2363;DHT22;1192;51.664;7.626;2022-09-09T02:08:56;19.40;99.90
2363;DHT22;1192;51.664;7.626;2022-09-09T02:11:27;19.40;99.90
2363;DHT22;1192;51.664;7.626;2022-09-09T02:13:59;19.40;99.90
2363;DHT22;1192;51.664;7.626;2022-09-09T02:16:30;19.40;99.90
2363;DHT22;1192;51.664;7.626;2022-09-09T02:19:02;19.40;99.90
2363;DHT22;1192;51.664;7.626;2022-09-09T02:21:33;19.40;99.90
2363;DHT22;1192;51.664;7.626;2022-09-09T02:24:04;19.40;99.90
2363;DHT22;1192;51.664;7.626;2022-09-09T02:26:34;19.40;99.90
2363;DHT22;1192;51.664;7.626;2022-09-09T02:29:07;19.30;99.90
2363;DHT22;1192;51.664;7.626;2022-09-09T02:31:36;19.30;99.90
2363;DHT22;1192;51.664;7.626;2022-09-09T02:34:03;19.30;99.90
2363;DHT22;1192;51.664;7.626;2022-09-09T02:36:33;19.30;99.90
2363;DHT22;1192;51.664;7.626;2022-09-09T02:39:03;19.30;99.90
2363;DHT22;1192;51.664;7.626;2022-09-09T02:41:33;19.30;99.90
2363;DHT22;1192;51.664;7.626;2022-09-09T02:44:00;19.30;99.90
2363;DHT22;1192;51.664;7.626;2022-09-09T02:46:37;19.30;99.90
2363;DHT22;1192;51.664;7.626;2022-09-09T02:49:10;19.30;99.90
2363;DHT22;1192;51.664;7.626;2022-09-09T02:51:40;19.30;99.90
2363;DHT22;1192;51.664;7.626;2022-09-09T02:54:17;19.30;99.90
2363;DHT22;1192;51.664;7.626;2022-09-09T02:56:51;19.30;99.90
2363;DHT22;1192;51.664;7.626;2022-09-09T02:59:20;19.30;99.90
2363;DHT22;1192;51.664;7.626;2022-09-09T03:01:48;19.30;99.90
2363;DHT22;1192;51.664;7.626;2022-09-09T03:04:16;19.30;99.90
2363;DHT22;1192;51.664;7.626;2022-09-09T03:06:42;19.30;99.90
2363;DHT22;1192;51.664;7.626;2022-09-09T03:09:09;19.30;99.90
2363;DHT22;1192;51.664;7.626;2022-09-09T03:11:36;19.20;99.90
2363;DHT22;1192;51.664;7.626;2022-09-09T03:14:04;19.20;99.90
2363;DHT22;1192;51.664;7.626;2022-09-09T03:16:31;19.20;99.90
2363;DHT22;1192;51.664;7.626;2022-09-09T03:19:01;19.20;99.90
2363;DHT22;1192;51.664;7.626;2022-09-09T03:21:27;19.20;99.90
2363;DHT22;1192;51.664;7.626;2022-09-09T03:23:54;19.20;99.90
2363;DHT22;1192;51.664;7.626;2022-09-09T03:26:22;19.20;99.90
2363;DHT22;1192;51.664;7.626;2022-09-09T03:28:49;19.20;99.90
2363;DHT22;1192;51.664;7.626;2022-09-09T03:31:19;19.20;99.90
2363;DHT22;1192;51.664;7.626;2022-09-09T03:33:46;19.20;99.90
2363;DHT22;1192;51.664;7.626;2022-09-09T03:36:15;19.20;99.90
2363;DHT22;1192;51.664;7.626;2022-09-09T03:38:41;19.10;99.90
2363;DHT22;1192;51.664;7.626;2022-09-09T03:41:08;19.20;99.90
2363;DHT22;1192;51.664;7.626;2022-09-09T03:43:35;19.10;99.90
2363;DHT22;1192;51.664;7.626;2022-09-09T03:46:03;19.10;99.90
2363;DHT22;1192;51.664;7.626;2022-09-09T03:48:30;19.10;99.90
2363;DHT22;1192;51.664;7.626;2022-09-09T03:50:56;19.10;99.90
2363;DHT22;1192;51.664;7.626;2022-09-09T03:53:28;19.10;99.90
2363;DHT22;1192;51.664;7.626;2022-09-09T03:55:56;19.10;99.90
2363;DHT22;1192;51.664;7.626;2022-09-09T03:58:26;19.10;99.90
2363;DHT22;1192;51.664;7.626;2022-09-09T04:00:54;19.10;99.90
2363;DHT22;1192;51.664;7.626;2022-09-09T04:03:22;19.10;99.90
2363;DHT22;1192;51.664;7.626;2022-09-09T04:05:50;19.10;99.90
2363;DHT22;1192;51.664;7.626;2022-09-09T04:08:17;19.10;99.90
2363;DHT22;1192;51.664;7.626;2022-09-09T04:10:46;19.10;99.90
2363;DHT22;1192;51.664;7.626;2022-09-09T04:13:13;19.10;99.90
2363;DHT22;1192;51.664;7.626;2022-09-09T04:15:43;19.10;99.90
2363;DHT22;1192;51.664;7.626;2022-09-09T04:18:11;19.00;99.90
2363;DHT22;1192;51.664;7.626;2022-09-09T04:20:37;19.10;99.90
2363;DHT22;1192;51.664;7.626;2022-09-09T04:23:04;19.00;99.90
2363;DHT22;1192;51.664;7.626;2022-09-09T04:25:31;19.00;99.90
2363;DHT22;1192;51.664;7.626;2022-09-09T04:28:00;19.00;99.90
2363;DHT22;1192;51.664;7.626;2022-09-09T04:30:28;19.00;99.90
2363;DHT22;1192;51.664;7.626;2022-09-09T04:32:54;19.00;99.90
2363;DHT22;1192;51.664;7.626;2022-09-09T04:35:21;19.00;99.90
2363;DHT22;1192;51.664;7.626;2022-09-09T04:37:48;19.00;99.90
2363;DHT22;1192;51.664;7.626;2022-09-09T04:40:15;19.00;99.90
2363;DHT22;1192;51.664;7.626;2022-09-09T04:42:42;19.00;99.90
2363;DHT22;1192;51.664;7.626;2022-09-09T04:45:10;19.00;99.90
2363;DHT22;1192;51.664;7.626;2022-09-09T04:47:39;19.00;99.90
2363;DHT22;1192;51.664;7.626;2022-09-09T04:50:07;19.00;99.90
2363;DHT22;1192;51.664;7.626;2022-09-09T04:52:34;19.00;99.90
2363;DHT22;1192;51.664;7.626;2022-09-09T04:55:01;19.00;99.90
2363;DHT22;1192;51.664;7.626;2022-09-09T04:57:28;19.00;99.90
2363;DHT22;1192;51.664;7.626;2022-09-09T04:59:57;19.00;99.90
2363;DHT22;1192;51.664;7.626;2022-09-09T05:02:26;19.00;99.90
2363;DHT22;1192;51.664;7.626;2022-09-09T05:04:53;19.00;99.90
2363;DHT22;1192;51.664;7.626;2022-09-09T05:07:20;18.90;99.90
2363;DHT22;1192;51.664;7.626;2022-09-09T05:09:47;19.00;99.90
2363;DHT22;1192;51.664;7.626;2022-09-09T05:12:14;19.00;99.90
2363;DHT22;1192;51.664;7.626;2022-09-09T05:14:42;18.90;99.90
2363;DHT22;1192;51.664;7.626;2022-09-09T05:17:09;18.90;99.90
2363;DHT22;1192;51.664;7.626;2022-09-09T05:19:37;18.90;99.90
2363;DHT22;1192;51.664;7.626;2022-09-09T05:22:04;18.90;99.90
2363;DHT22;1192;51.664;7.626;2022-09-09T05:24:31;18.90;99.90
2363;DHT22;1192;51.664;7.626;2022-09-09T05:26:58;18.90;99.90
2363;DHT22;1192;51.664;7.626;2022-09-09T05:29:27;18.90;99.90
2363;DHT22;1192;51.664;7.626;2022-09-09T05:31:54;18.90;99.90
2363;DHT22;1192;51.664;7.626;2022-09-09T05:34:21;18.90;99.90
2363;DHT22;1192;51.664;7.626;2022-09-09T05:36:49;18.90;99.90
2363;DHT22;1192;51.664;7.626;2022-09-09T05:39:16;18.90;99.90
2363;DHT22;1192;51.664;7.626;2022-09-09T05:41:43;18.90;99.90
2363;DHT22;1192;51.664;7.626;2022-09-09T05:44:10;18.90;99.90
2363;DHT22;1192;51.664;7.626;2022-09-09T05:46:36;18.90;99.90
2363;DHT22;1192;51.664;7.626;2022-09-09T05:49:04;18.90;99.90
2363;DHT22;1192;51.664;7.626;2022-09-09T05:51:31;18.90;99.90
2363;DHT22;1192;51.664;7.626;2022-09-09T05:53:59;18.90;99.90
2363;DHT22;1192;51.664;7.626;2022-09-09T05:56:28;18.90;99.90
2363;DHT22;1192;51.664;7.626;2022-09-09T05:58:56;18.90;99.90
2363;DHT22;1192;51.664;7.626;2022-09-09T06:01:24;18.90;99.90
2363;DHT22;1192;51.664;7.626;2022-09-09T06:03:52;18.90;99.90
2363;DHT22;1192;51.664;7.626;2022-09-09T06:06:21;18.90;99.90
2363;DHT22;1192;51.664;7.626;2022-09-09T06:08:50;18.90;99.90
2363;DHT22;1192;51.664;7.626;2022-09-09T06:11:20;18.90;99.90
2363;DHT22;1192;51.664;7.626;2022-09-09T06:13:47;18.90;99.90
2363;DHT22;1192;51.664;7.626;2022-09-09T06:16:18;18.90;99.90
2363;DHT22;1192;51.664;7.626;2022-09-09T06:18:45;18.90;99.90
2363;DHT22;1192;51.664;7.626;2022-09-09T06:21:16;18.90;99.90
2363;DHT22;1192;51.664;7.626;2022-09-09T06:23:43;18.90;99.90
2363;DHT22;1192;51.664;7.626;2022-09-09T06:26:12;18.90;99.90
2363;DHT22;1192;51.664;7.626;2022-09-09T06:28:40;18.80;99.90
2363;DHT22;1192;51.664;7.626;2022-09-09T06:31:10;18.90;99.90
2363;DHT22;1192;51.664;7.626;2022-09-09T06:33:38;18.90;99.90
2363;DHT22;1192;51.664;7.626;2022-09-09T06:36:07;18.90;99.90
2363;DHT22;1192;51.664;7.626;2022-09-09T06:38:36;18.90;99.90
2363;DHT22;1192;51.664;7.626;2022-09-09T06:41:04;18.90;99.90
2363;DHT22;1192;51.664;7.626;2022-09-09T06:43:31;18.90;99.90
2363;DHT22;1192;51.664;7.626;2022-09-09T06:46:01;18.90;99.90
2363;DHT22;1192;51.664;7.626;2022-09-09T06:48:28;18.90;99.90
2363;DHT22;1192;51.664;7.626;2022-09-09T06:51:03;18.90;99.90
2363;DHT22;1192;51.664;7.626;2022-09-09T06:53:32;18.90;99.90
2363;DHT22;1192;51.664;7.626;2022-09-09T06:55:59;18.90;99.90
2363;DHT22;1192;51.664;7.626;2022-09-09T06:58:27;19.00;99.90
2363;DHT22;1192;51.664;7.626;2022-09-09T07:01:03;19.00;99.90
2363;DHT22;1192;51.664;7.626;2022-09-09T07:03:30;19.00;99.90
2363;DHT22;1192;51.664;7.626;2022-09-09T07:05:57;19.00;99.90
2363;DHT22;1192;51.664;7.626;2022-09-09T07:08:24;19.00;99.90
2363;DHT22;1192;51.664;7.626;2022-09-09T07:10:52;19.00;99.90
2363;DHT22;1192;51.664;7.626;2022-09-09T07:13:19;19.00;99.90
2363;DHT22;1192;51.664;7.626;2022-09-09T07:15:50;19.00;99.90
2363;DHT22;1192;51.664;7.626;2022-09-09T07:18:18;19.00;99.90
2363;DHT22;1192;51.664;7.626;2022-09-09T07:20:53;19.00;99.90
2363;DHT22;1192;51.664;7.626;2022-09-09T07:23:20;19.00;99.90
2363;DHT22;1192;51.664;7.626;2022-09-09T07:25:47;19.10;99.90
2363;DHT22;1192;51.664;7.626;2022-09-09T07:28:14;19.10;99.90
2363;DHT22;1192;51.664;7.626;2022-09-09T07:30:41;19.10;99.90
2363;DHT22;1192;51.664;7.626;2022-09-09T07:33:08;19.20;99.90
2363;DHT22;1192;51.664;7.626;2022-09-09T07:35:36;19.10;99.90
2363;DHT22;1192;51.664;7.626;2022-09-09T07:38:04;19.10;99.90
2363;DHT22;1192;51.664;7.626;2022-09-09T07:40:32;19.20;99.90
2363;DHT22;1192;51.664;7.626;2022-09-09T07:42:59;19.20;99.90
2363;DHT22;1192;51.664;7.626;2022-09-09T07:45:26;19.20;99.90
2363;DHT22;1192;51.664;7.626;2022-09-09T07:47:54;19.20;99.90
2363;DHT22;1192;51.664;7.626;2022-09-09T07:50:22;19.20;99.90
2363;DHT22;1192;51.664;7.626;2022-09-09T07:52:50;19.20;99.90
2363;DHT22;1192;51.664;7.626;2022-09-09T07:55:17;19.20;99.90
2363;DHT22;1192;51.664;7.626;2022-09-09T07:57:44;19.20;99.90
2363;DHT22;1192;51.664;7.626;2022-09-09T08:00:12;19.20;99.90
2363;DHT22;1192;51.664;7.626;2022-09-09T08:02:40;19.40;99.90
2363;DHT22;1192;51.664;7.626;2022-09-09T08:05:07;19.50;99.90
2363;DHT22;1192;51.664;7.626;2022-09-09T08:07:34;19.60;99.90
2363;DHT22;1192;51.664;7.626;2022-09-09T08:10:02;19.80;99.90
2363;DHT22;1192;51.664;7.626;2022-09-09T08:12:29;20.00;99.90
2363;DHT22;1192;51.664;7.626;2022-09-09T08:14:56;20.20;99.90
2363;DHT22;1192;51.664;7.626;2022-09-09T08:17:23;20.40;99.90
2363;DHT22;1192;51.664;7.626;2022-09-09T08:19:50;20.60;99.90
2363;DHT22;1192;51.664;7.626;2022-09-09T08:22:17;20.70;99.90
2363;DHT22;1192;51.664;7.626;2022-09-09T08:24:44;20.90;99.90
2363;DHT22;1192;51.664;7.626;2022-09-09T08:27:13;21.10;99.90
2363;DHT22;1192;51.664;7.626;2022-09-09T08:29:40;21.20;99.90
2363;DHT22;1192;51.664;7.626;2022-09-09T08:32:07;21.30;99.90
2363;DHT22;1192;51.664;7.626;2022-09-09T08:34:34;21.40;99.90
2363;DHT22;1192;51.664;7.626;2022-09-09T08:37:01;21.50;99.90
2363;DHT22;1192;51.664;7.626;2022-09-09T08:39:27;21.50;99.90
2363;DHT22;1192;51.664;7.626;2022-09-09T08:42:18;21.50;99.90
2363;DHT22;1192;51.664;7.626;2022-09-09T08:45:00;21.50;99.90
2363;DHT22;1192;51.664;7.626;2022-09-09T08:47:35;21.50;99.90
2363;DHT22;1192;51.664;7.626;2022-09-09T08:50:14;21.40;99.90
2363;DHT22;1192;51.664;7.626;2022-09-09T08:52:50;21.40;99.90
2363;DHT22;1192;51.664;7.626;2022-09-09T08:55:25;21.40;99.90
2363;DHT22;1192;51.664;7.626;2022-09-09T08:57:57;21.50;99.90
2363;DHT22;1192;51.664;7.626;2022-09-09T09:00:30;21.50;99.90
2363;DHT22;1192;51.664;7.626;2022-09-09T09:03:05;21.60;99.90
2363;DHT22;1192;51.664;7.626;2022-09-09T09:05:40;21.70;99.90
2363;DHT22;1192;51.664;7.626;2022-09-09T09:08:16;21.60;99.90
2363;DHT22;1192;51.664;7.626;2022-09-09T09:10:47;21.60;99.90
2363;DHT22;1192;51.664;7.626;2022-09-09T09:13:19;21.50;99.90
2363;DHT22;1192;51.664;7.626;2022-09-09T09:15:50;21.50;99.90
2363;DHT22;1192;51.664;7.626;2022-09-09T09:18:18;21.40;99.90
2363;DHT22;1192;51.664;7.626;2022-09-09T09:20:52;21.40;99.90
2363;DHT22;1192;51.664;7.626;2022-09-09T09:23:23;21.30;99.90
2363;DHT22;1192;51.664;7.626;2022-09-09T09:25:52;21.30;99.90
2363;DHT22;1192;51.664;7.626;2022-09-09T09:28:24;21.20;99.90
2363;DHT22;1192;51.664;7.626;2022-09-09T09:30:54;21.10;99.90
2363;DHT22;1192;51.664;7.626;2022-09-09T09:33:26;21.00;99.90
2363;DHT22;1192;51.664;7.626;2022-09-09T09:35:54;21.00;99.90
2363;DHT22;1192;51.664;7.626;2022-09-09T09:38:22;20.90;99.90
2363;DHT22;1192;51.664;7.626;2022-09-09T09:40:51;20.90;99.90
2363;DHT22;1192;51.664;7.626;2022-09-09T09:43:24;21.00;99.90
2363;DHT22;1192;51.664;7.626;2022-09-09T09:45:51;21.00;99.90
2363;DHT22;1192;51.664;7.626;2022-09-09T09:48:18;21.10;99.90
2363;DHT22;1192;51.664;7.626;2022-09-09T09:50:50;21.20;99.90
2363;DHT22;1192;51.664;7.626;2022-09-09T09:53:21;21.30;99.90
2363;DHT22;1192;51.664;7.626;2022-09-09T09:55:54;21.40;99.90
2363;DHT22;1192;51.664;7.626;2022-09-09T09:58:21;21.40;99.90
2363;DHT22;1192;51.664;7.626;2022-09-09T10:00:51;21.40;99.90
2363;DHT22;1192;51.664;7.626;2022-09-09T10:03:22;21.40;99.90
2363;DHT22;1192;51.664;7.626;2022-09-09T10:05:50;21.30;99.90
2363;DHT22;1192;51.664;7.626;2022-09-09T10:08:18;21.30;99.90
2363;DHT22;1192;51.664;7.626;2022-09-09T10:11:02;21.20;99.90
2363;DHT22;1192;51.664;7.626;2022-09-09T10:13:37;21.20;99.90
2363;DHT22;1192;51.664;7.626;2022-09-09T10:16:29;21.10;99.90
2363;DHT22;1192;51.664;7.626;2022-09-09T10:19:00;21.10;99.90
2363;DHT22;1192;51.664;7.626;2022-09-09T10:21:46;21.10;99.90
2363;DHT22;1192;51.664;7.626;2022-09-09T10:24:39;21.00;99.90
2363;DHT22;1192;51.664;7.626;2022-09-09T10:27:17;21.00;99.90
2363;DHT22;1192;51.664;7.626;2022-09-09T10:30:02;21.00;99.90
2363;DHT22;1192;51.664;7.626;2022-09-09T10:32:41;21.00;99.90
2363;DHT22;1192;51.664;7.626;2022-09-09T10:35:28;21.10;99.90
2363;DHT22;1192;51.664;7.626;2022-09-09T10:38:10;21.20;99.90
2363;DHT22;1192;51.664;7.626;2022-09-09T10:40:47;21.20;99.90
2363;DHT22;1192;51.664;7.626;2022-09-09T10:43:27;21.20;99.90
2363;DHT22;1192;51.664;7.626;2022-09-09T10:46:03;21.30;99.90
2363;DHT22;1192;51.664;7.626;2022-09-09T10:48:43;21.30;99.90
2363;DHT22;1192;51.664;7.626;2022-09-09T10:51:23;21.30;99.90
2363;DHT22;1192;51.664;7.626;2022-09-09T10:53:58;21.30;99.90
2363;DHT22;1192;51.664;7.626;2022-09-09T10:56:31;21.30;99.90
2363;DHT22;1192;51.664;7.626;2022-09-09T10:59:02;21.30;99.90
2363;DHT22;1192;51.664;7.626;2022-09-09T11:01:39;21.30;99.90
2363;DHT22;1192;51.664;7.626;2022-09-09T11:04:17;21.40;99.90
2363;DHT22;1192;51.664;7.626;2022-09-09T11:06:49;21.40;99.90
2363;DHT22;1192;51.664;7.626;2022-09-09T11:09:22;21.40;99.90
2363;DHT22;1192;51.664;7.626;2022-09-09T11:11:52;21.40;99.90
2363;DHT22;1192;51.664;7.626;2022-09-09T11:14:26;21.40;99.90
2363;DHT22;1192;51.664;7.626;2022-09-09T11:16:57;21.40;99.90
2363;DHT22;1192;51.664;7.626;2022-09-09T11:19:30;21.40;99.90
2363;DHT22;1192;51.664;7.626;2022-09-09T11:22:01;21.40;99.90
2363;DHT22;1192;51.664;7.626;2022-09-09T11:24:33;21.40;99.90
2363;DHT22;1192;51.664;7.626;2022-09-09T11:27:07;21.40;99.90
2363;DHT22;1192;51.664;7.626;2022-09-09T11:33:04;21.50;99.90
2363;DHT22;1192;51.664;7.626;2022-09-09T11:35:46;21.50;99.90
2363;DHT22;1192;51.664;7.626;2022-09-09T11:38:25;21.50;99.90
2363;DHT22;1192;51.664;7.626;2022-09-09T11:40:57;21.50;99.90
2363;DHT22;1192;51.664;7.626;2022-09-09T11:43:29;21.50;99.90
2363;DHT22;1192;51.664;7.626;2022-09-09T11:45:59;21.50;99.90
2363;DHT22;1192;51.664;7.626;2022-09-09T11:48:33;21.50;99.90
2363;DHT22;1192;51.664;7.626;2022-09-09T11:51:05;21.50;99.90
2363;DHT22;1192;51.664;7.626;2022-09-09T11:53:34;21.60;99.90
2363;DHT22;1192;51.664;7.626;2022-09-09T11:56:06;21.50;99.90
2363;DHT22;1192;51.664;7.626;2022-09-09T11:58:37;21.60;99.90
2363;DHT22;1192;51.664;7.626;2022-09-09T12:01:26;21.60;99.90
2363;DHT22;1192;51.664;7.626;2022-09-09T12:04:04;21.60;99.90
2363;DHT22;1192;51.664;7.626;2022-09-09T12:06:42;21.60;99.90
2363;DHT22;1192;51.664;7.626;2022-09-09T12:09:18;21.50;99.90
2363;DHT22;1192;51.664;7.626;2022-09-09T12:11:45;21.50;99.90
2363;DHT22;1192;51.664;7.626;2022-09-09T12:14:20;21.50;99.90
2363;DHT22;1192;51.664;7.626;2022-09-09T12:16:48;21.50;99.90
2363;DHT22;1192;51.664;7.626;2022-09-09T12:19:18;21.50;99.90
2363;DHT22;1192;51.664;7.626;2022-09-09T12:21:51;21.60;99.90
2363;DHT22;1192;51.664;7.626;2022-09-09T12:24:27;21.60;99.90
2363;DHT22;1192;51.664;7.626;2022-09-09T12:27:00;21.60;99.90
2363;DHT22;1192;51.664;7.626;2022-09-09T12:29:39;21.60;99.90
2363;DHT22;1192;51.664;7.626;2022-09-09T12:32:11;21.60;99.90
2363;DHT22;1192;51.664;7.626;2022-09-09T12:34:39;21.60;99.90
2363;DHT22;1192;51.664;7.626;2022-09-09T12:37:27;21.60;99.90
2363;DHT22;1192;51.664;7.626;2022-09-09T12:39:55;21.60;99.90
2363;DHT22;1192;51.664;7.626;2022-09-09T12:42:23;21.60;99.90
2363;DHT22;1192;51.664;7.626;2022-09-09T12:44:55;21.60;99.90
2363;DHT22;1192;51.664;7.626;2022-09-09T12:47:26;21.60;99.90
2363;DHT22;1192;51.664;7.626;2022-09-09T12:49:53;21.60;99.90
2363;DHT22;1192;51.664;7.626;2022-09-09T12:52:27;21.60;99.90
2363;DHT22;1192;51.664;7.626;2022-09-09T12:54:57;21.60;99.90
2363;DHT22;1192;51.664;7.626;2022-09-09T12:57:26;21.60;99.90
2363;DHT22;1192;51.664;7.626;2022-09-09T13:00:05;21.60;99.90
2363;DHT22;1192;51.664;7.626;2022-09-09T13:02:33;21.60;99.90
2363;DHT22;1192;51.664;7.626;2022-09-09T13:05:08;21.60;99.90
2363;DHT22;1192;51.664;7.626;2022-09-09T13:07:42;21.60;99.90
2363;DHT22;1192;51.664;7.626;2022-09-09T13:10:11;21.70;99.90
2363;DHT22;1192;51.664;7.626;2022-09-09T13:12:39;21.60;99.90
2363;DHT22;1192;51.664;7.626;2022-09-09T13:15:14;21.70;99.90
2363;DHT22;1192;51.664;7.626;2022-09-09T13:17:42;21.60;99.90
2363;DHT22;1192;51.664;7.626;2022-09-09T13:20:16;21.60;99.90
2363;DHT22;1192;51.664;7.626;2022-09-09T13:22:46;21.60;99.90
2363;DHT22;1192;51.664;7.626;2022-09-09T13:25:20;21.60;99.90
2363;DHT22;1192;51.664;7.626;2022-09-09T13:27:56;21.60;99.90
2363;DHT22;1192;51.664;7.626;2022-09-09T13:30:26;21.60;99.90
2363;DHT22;1192;51.664;7.626;2022-09-09T13:33:20;21.60;99.90
2363;DHT22;1192;51.664;7.626;2022-09-09T13:35:49;21.60;99.90
2363;DHT22;1192;51.664;7.626;2022-09-09T13:38:18;21.60;99.90
2363;DHT22;1192;51.664;7.626;2022-09-09T13:40:58;21.60;99.90
2363;DHT22;1192;51.664;7.626;2022-09-09T13:43:28;21.60;99.90
2363;DHT22;1192;51.664;7.626;2022-09-09T13:45:57;21.60;99.90
2363;DHT22;1192;51.664;7.626;2022-09-09T13:48:25;21.60;99.90
2363;DHT22;1192;51.664;7.626;2022-09-09T13:50:57;21.60;99.90
2363;DHT22;1192;51.664;7.626;2022-09-09T13:53:26;21.60;99.90
2363;DHT22;1192;51.664;7.626;2022-09-09T13:55:53;21.60;99.90
2363;DHT22;1192;51.664;7.626;2022-09-09T13:58:20;21.70;99.90
2363;DHT22;1192;51.664;7.626;2022-09-09T14:00:48;21.70;99.90
2363;DHT22;1192;51.664;7.626;2022-09-09T14:03:16;21.70;99.90
2363;DHT22;1192;51.664;7.626;2022-09-09T14:05:44;21.70;99.90
2363;DHT22;1192;51.664;7.626;2022-09-09T14:08:22;21.70;99.90
2363;DHT22;1192;51.664;7.626;2022-09-09T14:10:51;21.70;99.90
2363;DHT22;1192;51.664;7.626;2022-09-09T14:13:23;21.70;99.90
2363;DHT22;1192;51.664;7.626;2022-09-09T14:15:50;21.70;99.90
2363;DHT22;1192;51.664;7.626;2022-09-09T14:18:18;21.70;99.90
2363;DHT22;1192;51.664;7.626;2022-09-09T14:20:45;21.60;99.90
2363;DHT22;1192;51.664;7.626;2022-09-09T14:23:12;21.60;99.90
2363;DHT22;1192;51.664;7.626;2022-09-09T14:25:42;21.60;99.90
2363;DHT22;1192;51.664;7.626;2022-09-09T14:28:11;21.60;99.90
2363;DHT22;1192;51.664;7.626;2022-09-09T14:30:39;21.60;99.90
2363;DHT22;1192;51.664;7.626;2022-09-09T14:33:07;21.50;99.90
2363;DHT22;1192;51.664;7.626;2022-09-09T14:35:34;21.50;99.90
2363;DHT22;1192;51.664;7.626;2022-09-09T14:38:02;21.50;99.90
2363;DHT22;1192;51.664;7.626;2022-09-09T14:40:29;21.50;99.90
2363;DHT22;1192;51.664;7.626;2022-09-09T14:42:56;21.50;99.90
2363;DHT22;1192;51.664;7.626;2022-09-09T14:45:25;21.50;99.90
2363;DHT22;1192;51.664;7.626;2022-09-09T14:47:52;21.50;99.90
2363;DHT22;1192;51.664;7.626;2022-09-09T14:50:20;21.50;99.90
2363;DHT22;1192;51.664;7.626;2022-09-09T14:52:47;21.50;99.90
2363;DHT22;1192;51.664;7.626;2022-09-09T14:55:14;21.50;99.90
2363;DHT22;1192;51.664;7.626;2022-09-09T14:57:41;21.50;99.90
2363;DHT22;1192;51.664;7.626;2022-09-09T15:00:10;21.50;99.90
2363;DHT22;1192;51.664;7.626;2022-09-09T15:02:39;21.50;99.90
2363;DHT22;1192;51.664;7.626;2022-09-09T15:05:06;21.50;99.90
2363;DHT22;1192;51.664;7.626;2022-09-09T15:07:33;21.50;99.90
2363;DHT22;1192;51.664;7.626;2022-09-09T15:10:01;21.50;99.90
2363;DHT22;1192;51.664;7.626;2022-09-09T15:12:28;21.50;99.90
2363;DHT22;1192;51.664;7.626;2022-09-09T15:14:55;21.50;99.90
2363;DHT22;1192;51.664;7.626;2022-09-09T15:17:22;21.50;99.90
2363;DHT22;1192;51.664;7.626;2022-09-09T15:19:54;21.50;99.90
2363;DHT22;1192;51.664;7.626;2022-09-09T15:22:21;21.50;99.90
2363;DHT22;1192;51.664;7.626;2022-09-09T15:24:47;21.50;99.90
2363;DHT22;1192;51.664;7.626;2022-09-09T15:27:14;21.50;99.90
2363;DHT22;1192;51.664;7.626;2022-09-09T15:29:42;21.50;99.90
2363;DHT22;1192;51.664;7.626;2022-09-09T15:32:10;21.50;99.90
2363;DHT22;1192;51.664;7.626;2022-09-09T15:34:36;21.50;99.90
2363;DHT22;1192;51.664;7.626;2022-09-09T15:37:04;21.50;99.90
2363;DHT22;1192;51.664;7.626;2022-09-09T15:39:32;21.50;99.90
2363;DHT22;1192;51.664;7.626;2022-09-09T15:41:58;21.50;99.90
2363;DHT22;1192;51.664;7.626;2022-09-09T15:44:26;21.50;99.90
2363;DHT22;1192;51.664;7.626;2022-09-09T15:46:53;21.50;99.90
2363;DHT22;1192;51.664;7.626;2022-09-09T15:49:21;21.50;99.90
2363;DHT22;1192;51.664;7.626;2022-09-09T15:51:52;21.40;99.90
2363;DHT22;1192;51.664;7.626;2022-09-09T15:54:22;21.40;99.90
2363;DHT22;1192;51.664;7.626;2022-09-09T15:56:51;21.40;99.90
2363;DHT22;1192;51.664;7.626;2022-09-09T15:59:20;21.40;99.90
2363;DHT22;1192;51.664;7.626;2022-09-09T16:01:48;21.40;99.90
2363;DHT22;1192;51.664;7.626;2022-09-09T16:04:17;21.30;99.90
2363;DHT22;1192;51.664;7.626;2022-09-09T16:06:49;21.30;99.90
2363;DHT22;1192;51.664;7.626;2022-09-09T16:09:18;21.30;99.90
2363;DHT22;1192;51.664;7.626;2022-09-09T16:11:46;21.30;99.90
2363;DHT22;1192;51.664;7.626;2022-09-09T16:14:14;21.20;99.90
2363;DHT22;1192;51.664;7.626;2022-09-09T16:16:42;21.20;99.90
2363;DHT22;1192;51.664;7.626;2022-09-09T16:19:10;21.10;99.90
2363;DHT22;1192;51.664;7.626;2022-09-09T16:21:39;21.10;99.90
2363;DHT22;1192;51.664;7.626;2022-09-09T16:24:08;21.10;99.90
2363;DHT22;1192;51.664;7.626;2022-09-09T16:26:37;21.10;99.90